createdAt,value
2019-06-27T00:00:38.523Z,100995.22
2019-06-27T00:03:08.669Z,100995.05
2019-06-27T00:05:38.797Z,100997.77
2019-06-27T00:08:09.104Z,100999.77
2019-06-27T00:10:39.272Z,101002.06
2019-06-27T00:13:09.407Z,100994.14
2019-06-27T00:15:39.539Z,100995.39
2019-06-27T00:18:09.678Z,100997.54
2019-06-27T00:20:39.799Z,100994.61
2019-06-27T00:23:10.023Z,101007.19
2019-06-27T00:25:40.141Z,101009.33
2019-06-27T00:28:10.262Z,101011.47
2019-06-27T00:30:40.410Z,101018.67
2019-06-27T00:33:10.559Z,101018.42
2019-06-27T00:35:40.700Z,101024.35
2019-06-27T00:38:10.836Z,101028.41
2019-06-27T00:40:41.941Z,101029.34
2019-06-27T00:43:12.083Z,101025.48
2019-06-27T00:45:42.451Z,101028.19
2019-06-27T00:48:12.560Z,101037.11
2019-06-27T00:50:43.098Z,101029.47
2019-06-27T00:53:13.297Z,101034.67
2019-06-27T00:55:43.484Z,101033.87
2019-06-27T00:58:13.669Z,101034.53
2019-06-27T01:00:44.266Z,101042.81
2019-06-27T01:03:14.508Z,101035.45
2019-06-27T01:05:44.640Z,101039.16
2019-06-27T01:08:14.779Z,101045.52
2019-06-27T01:10:44.903Z,101047.50
2019-06-27T01:13:15.040Z,101049.36
2019-06-27T01:15:45.166Z,101056.05
2019-06-27T01:18:15.321Z,101057.05
2019-06-27T01:20:45.472Z,101059.76
2019-06-27T01:23:15.691Z,101055.56
2019-06-27T01:25:45.842Z,101050.69
2019-06-27T01:28:15.978Z,101051.69
2019-06-27T01:30:46.377Z,101060.67
2019-06-27T01:33:16.520Z,101067.59
2019-06-27T01:35:46.648Z,101069.80
2019-06-27T01:38:16.788Z,101075.99
2019-06-27T01:40:46.902Z,101079.11
2019-06-27T01:43:17.067Z,101081.00
2019-06-27T01:45:51.904Z,101082.09
2019-06-27T01:48:22.092Z,101087.91
2019-06-27T01:50:52.218Z,101086.33
2019-06-27T01:53:22.414Z,101089.17
2019-06-27T01:55:52.523Z,101093.87
2019-06-27T01:58:22.735Z,101094.09
2019-06-27T02:00:52.859Z,101095.09
2019-06-27T02:03:23.023Z,101094.83
2019-06-27T02:05:53.151Z,101094.73
2019-06-27T02:08:23.408Z,101096.81
2019-06-27T02:10:53.621Z,101104.94
2019-06-27T02:13:23.787Z,101104.34
2019-06-27T02:15:54.024Z,101111.62
2019-06-27T02:18:24.155Z,101110.49
2019-06-27T02:20:54.291Z,101109.01
2019-06-27T02:23:24.513Z,101109.27
2019-06-27T02:25:54.641Z,101112.48
2019-06-27T02:28:26.595Z,101111.84
2019-06-27T02:30:56.730Z,101111.22
2019-06-27T02:33:26.884Z,101116.50
2019-06-27T02:35:57.017Z,101118.28
2019-06-27T02:38:27.180Z,101120.14
2019-06-27T02:40:58.857Z,101132.55
2019-06-27T02:43:29.368Z,101133.47
2019-06-27T02:45:59.491Z,101134.36
2019-06-27T02:48:29.614Z,101128.87
2019-06-27T02:50:59.737Z,101131.66
2019-06-27T02:53:30.591Z,101136.16
2019-06-27T02:56:00.723Z,101141.10
2019-06-27T02:58:32.478Z,101139.77
2019-06-27T03:01:03.731Z,101139.46
2019-06-27T03:03:33.874Z,101140.34
2019-06-27T03:06:04.006Z,101142.50
2019-06-27T03:08:34.167Z,101153.43
2019-06-27T03:11:04.311Z,101152.09
2019-06-27T03:13:34.457Z,101153.53
2019-06-27T03:16:04.582Z,101163.27
2019-06-27T03:18:34.742Z,101162.25
2019-06-27T03:21:04.956Z,101160.61
2019-06-27T03:23:35.105Z,101163.91
2019-06-27T03:26:05.257Z,101167.10
2019-06-27T03:28:51.007Z,101174.92
2019-06-27T03:31:07.205Z,101174.45
2019-06-27T03:33:37.463Z,101183.69
2019-06-27T03:36:07.724Z,101180.19
2019-06-27T03:38:37.978Z,101185.20
2019-06-27T03:41:08.088Z,101185.83
2019-06-27T03:43:38.227Z,101194.55
2019-06-27T03:46:08.381Z,101191.88
2019-06-27T03:48:39.632Z,101196.08
2019-06-27T03:51:09.772Z,101198.45
2019-06-27T03:53:39.959Z,101206.73
2019-06-27T03:56:10.121Z,101207.30
2019-06-27T03:58:40.293Z,101206.88
2019-06-27T04:01:10.441Z,101207.30
2019-06-27T04:03:42.941Z,101219.00
2019-06-27T04:06:12.436Z,101219.78
2019-06-27T04:08:42.559Z,101232.81
2019-06-27T04:11:12.741Z,101224.91
2019-06-27T04:13:42.972Z,101237.14
2019-06-27T04:16:13.102Z,101233.39
2019-06-27T04:18:43.309Z,101244.90
2019-06-27T04:21:13.510Z,101237.37
2019-06-27T04:23:43.640Z,101246.86
2019-06-27T04:26:13.771Z,101249.06
2019-06-27T04:28:43.947Z,101252.22
2019-06-27T04:31:14.045Z,101251.90
2019-06-27T04:33:44.185Z,101259.94
2019-06-27T04:36:14.385Z,101260.72
2019-06-27T04:38:44.518Z,101259.97
2019-06-27T04:41:14.762Z,101266.71
2019-06-27T04:43:44.940Z,101268.44
2019-06-27T04:46:15.234Z,101272.97
2019-06-27T04:48:45.376Z,101267.31
2019-06-27T04:51:15.525Z,101272.50
2019-06-27T04:53:45.796Z,101272.41
2019-06-27T04:56:15.889Z,101270.64
2019-06-27T04:58:46.061Z,101270.53
2019-06-27T05:01:16.246Z,101277.08
2019-06-27T05:03:46.383Z,101279.92
2019-06-27T05:06:16.510Z,101272.34
2019-06-27T05:08:46.652Z,101278.39
2019-06-27T05:11:16.774Z,101277.72
2019-06-27T05:13:46.921Z,101276.50
2019-06-27T05:16:17.064Z,101283.59
2019-06-27T05:18:47.211Z,101281.63
2019-06-27T05:21:17.421Z,101279.32
2019-06-27T05:23:47.554Z,101284.55
2019-06-27T05:26:18.494Z,101291.42
2019-06-27T05:28:48.642Z,101293.70
2019-06-27T05:31:18.758Z,101301.69
2019-06-27T05:33:48.917Z,101300.05
2019-06-27T05:36:19.028Z,101300.13
2019-06-27T05:38:49.260Z,101308.03
2019-06-27T05:41:19.470Z,101305.67
2019-06-27T05:43:49.606Z,101304.89
2019-06-27T05:46:19.741Z,101304.02
2019-06-27T05:48:49.873Z,101300.16
2019-06-27T05:51:20.101Z,101307.87
2019-06-27T05:53:50.454Z,101297.32
2019-06-27T05:56:20.725Z,101302.31
2019-06-27T05:58:52.096Z,101303.17
2019-06-27T06:01:22.495Z,101300.19
2019-06-27T06:03:52.625Z,101302.70
2019-06-27T06:06:22.745Z,101307.45
2019-06-27T06:08:52.870Z,101307.61
2019-06-27T06:11:24.211Z,101304.52
2019-06-27T06:13:54.326Z,101308.25
2019-06-27T06:16:24.438Z,101306.55
2019-06-27T06:18:54.561Z,101300.06
2019-06-27T06:21:24.679Z,101302.75
2019-06-27T06:23:54.860Z,101313.12
2019-06-27T06:26:24.991Z,101311.67
2019-06-27T06:28:55.152Z,101317.09
2019-06-27T06:31:25.444Z,101316.38
2019-06-27T06:33:55.637Z,101314.10
2019-06-27T06:36:25.837Z,101320.45
2019-06-27T06:38:55.974Z,101314.95
2019-06-27T06:41:26.104Z,101318.00
2019-06-27T06:43:56.259Z,101320.25
2019-06-27T06:46:26.383Z,101321.77
2019-06-27T06:48:56.535Z,101327.86
2019-06-27T06:51:26.662Z,101324.90
2019-06-27T06:53:56.835Z,101329.66
2019-06-27T06:56:26.956Z,101331.71
2019-06-27T06:58:57.076Z,101342.87
2019-06-27T07:01:27.204Z,101347.43
2019-06-27T07:03:58.397Z,101343.23
2019-06-27T07:06:28.540Z,101346.83
2019-06-27T07:08:58.680Z,101351.82
2019-06-27T07:11:28.965Z,101355.97
2019-06-27T07:13:59.111Z,101360.12
2019-06-27T07:16:29.220Z,101358.23
2019-06-27T07:18:59.419Z,101359.11
2019-06-27T07:21:29.543Z,101363.90
2019-06-27T07:23:59.689Z,101366.91
2019-06-27T07:26:29.826Z,101367.91
2019-06-27T07:28:59.965Z,101368.80
2019-06-27T07:31:31.296Z,101363.05
2019-06-27T07:34:02.457Z,101367.12
2019-06-27T07:36:32.584Z,101376.86
2019-06-27T07:39:02.733Z,101369.19
2019-06-27T07:41:32.916Z,101374.83
2019-06-27T07:44:03.058Z,101383.70
2019-06-27T07:46:33.210Z,101393.00
2019-06-27T07:49:03.344Z,101385.00
2019-06-27T07:51:33.949Z,101385.67
2019-06-27T07:54:04.168Z,101387.14
2019-06-27T07:56:34.289Z,101389.06
2019-06-27T07:59:04.547Z,101385.47
2019-06-27T08:01:36.042Z,101388.53
2019-06-27T08:04:06.469Z,101391.94
2019-06-27T08:06:36.703Z,101391.34
2019-06-27T08:09:06.963Z,101394.14
2019-06-27T08:11:37.631Z,101400.11
2019-06-27T08:14:07.765Z,101405.60
2019-06-27T08:16:37.885Z,101400.50
2019-06-27T08:19:08.025Z,101413.08
2019-06-27T08:21:38.152Z,101404.73
2019-06-27T08:24:08.305Z,101403.82
2019-06-27T08:26:38.432Z,101409.37
2019-06-27T08:29:08.612Z,101412.16
2019-06-27T08:31:50.916Z,101420.31
2019-06-27T08:34:10.786Z,101421.77
2019-06-27T08:36:40.986Z,101427.50
2019-06-27T08:39:11.146Z,101434.98
2019-06-27T08:41:41.264Z,101439.91
2019-06-27T08:44:11.396Z,101429.97
2019-06-27T08:46:41.526Z,101436.67
2019-06-27T08:49:11.735Z,101433.44
2019-06-27T08:51:41.897Z,101440.94
2019-06-27T08:54:12.350Z,101441.31
2019-06-27T08:56:42.530Z,101432.92
2019-06-27T08:59:12.657Z,101447.25
2019-06-27T09:01:42.865Z,101441.73
2019-06-27T09:04:13.000Z,101443.20
2019-06-27T09:06:44.229Z,101447.13
2019-06-27T09:09:14.403Z,101452.75
2019-06-27T09:11:44.540Z,101458.96
2019-06-27T09:14:15.760Z,101450.24
2019-06-27T09:16:46.883Z,101449.53
2019-06-27T09:19:17.230Z,101444.52
2019-06-27T09:21:47.351Z,101458.81
2019-06-27T09:24:17.567Z,101451.05
2019-06-27T09:26:47.690Z,101450.05
2019-06-27T09:29:18.248Z,101457.28
2019-06-27T09:31:48.405Z,101453.02
2019-06-27T09:34:21.402Z,101453.75
2019-06-27T09:36:50.364Z,101450.97
2019-06-27T09:39:20.544Z,101456.91
2019-06-27T09:41:50.702Z,101442.02
2019-06-27T09:44:20.823Z,101463.29
2019-06-27T09:46:50.952Z,101445.97
2019-06-27T09:49:21.100Z,101446.04
2019-06-27T09:51:51.251Z,101455.69
2019-06-27T09:54:21.445Z,101457.16
2019-06-27T09:56:51.576Z,101465.37
2019-06-27T09:59:21.757Z,101464.24
2019-06-27T10:01:51.923Z,101466.06
2019-06-27T10:04:22.085Z,101462.89
2019-06-27T10:06:52.240Z,101466.50
2019-06-27T10:09:22.404Z,101462.61
2019-06-27T10:11:53.523Z,101455.27
2019-06-27T10:14:23.778Z,101462.82
2019-06-27T10:16:54.103Z,101445.34
2019-06-27T10:19:24.336Z,101445.34
2019-06-27T10:21:54.459Z,101469.14
2019-06-27T10:24:24.631Z,101469.14
2019-06-27T10:26:54.805Z,101464.02
2019-06-27T10:29:26.074Z,101476.83
2019-06-27T10:31:56.202Z,101463.94
2019-06-27T10:34:26.345Z,101463.94
2019-06-27T10:36:56.462Z,101461.67
2019-06-27T10:39:26.599Z,101464.06
2019-06-27T10:41:56.739Z,101461.25
2019-06-27T10:44:26.897Z,101468.79
2019-06-27T10:46:57.039Z,101464.13
2019-06-27T10:49:27.161Z,101461.10
2019-06-27T10:51:58.168Z,101460.34
2019-06-27T10:54:28.476Z,101458.72
2019-06-27T10:56:58.604Z,101449.23
2019-06-27T10:59:28.747Z,101459.98
2019-06-27T11:01:58.897Z,101454.88
2019-06-27T11:04:29.030Z,101461.38
2019-06-27T11:06:59.169Z,101466.10
2019-06-27T11:09:29.319Z,101466.48
2019-06-27T11:11:59.440Z,101467.44
2019-06-27T11:14:29.583Z,101472.06
2019-06-27T11:16:59.706Z,101469.73
2019-06-27T11:19:29.929Z,101466.46
2019-06-27T11:22:00.065Z,101472.32
2019-06-27T11:24:31.261Z,101470.75
2019-06-27T11:27:01.410Z,101471.91
2019-06-27T11:29:31.550Z,101464.72
2019-06-27T11:32:01.693Z,101462.82
2019-06-27T11:34:34.914Z,101462.82
2019-06-27T11:37:03.619Z,101471.89
2019-06-27T11:39:33.755Z,101474.78
2019-06-27T11:42:03.884Z,101474.11
2019-06-27T11:44:34.015Z,101482.05
2019-06-27T11:47:04.144Z,101476.12
2019-06-27T11:49:34.288Z,101463.32
2019-06-27T11:52:04.468Z,101467.72
2019-06-27T11:54:35.463Z,101467.72
2019-06-27T11:57:05.601Z,101465.01
2019-06-27T11:59:37.759Z,101472.39
2019-06-27T12:02:09.583Z,101468.09
2019-06-27T12:04:39.720Z,101469.91
2019-06-27T12:07:09.858Z,101471.91
2019-06-27T12:09:40.006Z,101472.95
2019-06-27T12:12:10.145Z,101471.80
2019-06-27T12:14:40.420Z,101474.25
2019-06-27T12:17:10.551Z,101470.13
2019-06-27T12:19:40.692Z,101459.86
2019-06-27T12:22:10.851Z,101460.16
2019-06-27T12:24:40.999Z,101465.48
2019-06-27T12:27:11.136Z,101467.55
2019-06-27T12:29:41.296Z,101462.61
2019-06-27T12:32:11.415Z,101457.76
2019-06-27T12:34:41.585Z,101460.16
2019-06-27T12:37:11.698Z,101461.47
2019-06-27T12:39:41.833Z,101457.66
2019-06-27T12:42:11.999Z,101463.65
2019-06-27T12:44:42.133Z,101458.39
2019-06-27T12:47:12.277Z,101468.86
2019-06-27T12:50:00.585Z,101456.95
2019-06-27T12:52:14.264Z,101449.53
2019-06-27T12:54:44.579Z,101449.03
2019-06-27T12:57:14.831Z,101445.91
2019-06-27T12:59:44.988Z,101450.27
2019-06-27T13:02:15.113Z,101443.88
2019-06-27T13:04:45.966Z,101450.59
2019-06-27T13:07:16.104Z,101457.11
2019-06-27T13:09:47.315Z,101456.89
2019-06-27T13:12:17.567Z,101456.67
2019-06-27T13:14:47.718Z,101459.45
2019-06-27T13:17:17.879Z,101452.05
2019-06-27T13:19:48.021Z,101454.15
2019-06-27T13:22:18.168Z,101458.23
2019-06-27T13:24:48.315Z,101466.42
2019-06-27T13:27:18.501Z,101470.91
2019-06-27T13:29:48.740Z,101283.19
2019-06-27T13:32:18.866Z,101462.73
2019-06-27T13:34:49.147Z,101463.39
2019-06-27T13:37:19.394Z,101466.80
2019-06-27T13:39:49.513Z,101459.01
2019-06-27T13:42:19.631Z,101455.34
2019-06-27T13:44:49.858Z,101454.88
2019-06-27T13:47:20.405Z,101468.42
2019-06-27T13:49:50.691Z,101462.73
2019-06-27T13:52:20.823Z,101452.59
2019-06-27T13:54:51.002Z,101445.22
2019-06-27T13:57:21.121Z,101446.75
2019-06-27T13:59:52.283Z,101453.09
2019-06-27T14:02:22.411Z,101457.91
2019-06-27T14:04:57.124Z,101454.95
2019-06-27T14:07:24.458Z,101452.28
2019-06-27T14:09:57.278Z,101451.90
2019-06-27T14:12:26.499Z,101449.16
2019-06-27T14:14:59.983Z,101446.67
2019-06-27T14:17:28.514Z,101441.77
2019-06-27T14:19:58.679Z,101445.41
2019-06-27T14:22:34.058Z,101442.69
2019-06-27T14:25:01.913Z,101441.98
2019-06-27T14:27:32.157Z,101452.94
2019-06-27T14:30:02.398Z,101430.69
2019-06-27T14:32:33.560Z,101431.54
2019-06-27T14:35:14.542Z,101431.05
2019-06-27T14:37:35.753Z,101435.49
2019-06-27T14:40:06.825Z,101441.11
2019-06-27T14:42:36.969Z,101436.11
2019-06-27T14:45:07.211Z,101434.78
2019-06-27T14:47:37.337Z,101423.95
2019-06-27T14:50:08.068Z,101444.02
2019-06-27T14:52:38.214Z,101431.34
2019-06-27T14:55:08.869Z,101437.56
2019-06-27T14:57:39.029Z,101422.60
2019-06-27T15:00:10.428Z,101428.11
2019-06-27T15:02:41.023Z,101425.34
2019-06-27T15:05:11.452Z,101425.53
2019-06-27T15:07:41.592Z,101429.18
2019-06-27T15:10:12.412Z,101421.77
2019-06-27T15:12:56.446Z,101423.19
2019-06-27T15:15:15.801Z,101422.48
2019-06-27T15:17:46.041Z,101426.44
2019-06-27T15:20:16.962Z,101430.39
2019-06-27T15:22:47.122Z,101421.44
2019-06-27T15:25:17.385Z,101427.57
2019-06-27T15:27:47.521Z,101422.77
2019-06-27T15:30:18.406Z,101413.30
2019-06-27T15:32:48.657Z,101418.66
2019-06-27T15:35:18.801Z,101416.78
2019-06-27T15:37:48.961Z,101341.05
2019-06-27T15:40:19.477Z,101409.08
2019-06-27T15:42:49.604Z,101408.78
2019-06-27T15:45:19.861Z,101408.41
2019-06-27T15:47:49.975Z,101408.41
2019-06-27T15:50:20.100Z,101402.23
2019-06-27T15:52:50.243Z,101403.26
2019-06-27T15:55:20.706Z,101394.50
2019-06-27T15:57:50.837Z,101403.92
2019-06-27T16:00:21.182Z,101406.17
2019-06-27T16:02:52.248Z,101405.12
2019-06-27T16:05:22.457Z,101398.81
2019-06-27T16:07:52.603Z,101399.34
2019-06-27T16:10:22.950Z,101389.41
2019-06-27T16:12:53.101Z,101392.64
2019-06-27T16:15:23.296Z,101392.83
2019-06-27T16:17:53.427Z,101386.32
2019-06-27T16:20:23.986Z,101394.36
2019-06-27T16:22:54.156Z,101387.16
2019-06-27T16:25:24.277Z,101397.45
2019-06-27T16:27:54.486Z,101397.97
2019-06-27T16:30:24.810Z,101391.61
2019-06-27T16:32:54.947Z,101389.72
2019-06-27T16:35:26.060Z,101388.70
2019-06-27T16:37:56.195Z,101394.36
2019-06-27T16:40:26.416Z,101396.25
2019-06-27T16:42:56.559Z,101399.84
2019-06-27T16:45:27.016Z,101398.97
2019-06-27T16:47:57.149Z,101401.19
2019-06-27T16:50:27.572Z,101404.44
2019-06-27T16:52:57.781Z,101402.25
2019-06-27T16:55:28.101Z,101402.94
2019-06-27T16:57:58.227Z,101405.33
2019-06-27T17:00:28.465Z,101406.67
2019-06-27T17:02:58.642Z,101406.33
2019-06-27T17:05:28.792Z,101336.72
2019-06-27T17:07:58.927Z,101402.22
2019-06-27T17:10:29.053Z,101396.36
2019-06-27T17:12:59.202Z,101400.13
2019-06-27T17:15:29.367Z,101407.27
2019-06-27T17:17:59.489Z,101405.30
2019-06-27T17:20:29.634Z,101399.47
2019-06-27T17:22:59.790Z,101396.39
2019-06-27T17:25:29.922Z,101405.98
2019-06-27T17:28:00.036Z,101409.07
2019-06-27T17:30:30.174Z,101409.07
2019-06-27T17:33:00.304Z,101406.50
2019-06-27T17:35:30.433Z,101406.63
2019-06-27T17:38:00.557Z,101408.51
2019-06-27T17:40:30.700Z,101408.50
2019-06-27T17:43:00.834Z,101410.73
2019-06-27T17:45:30.963Z,101411.08
2019-06-27T17:48:01.162Z,101414.31
2019-06-27T17:50:31.296Z,101417.80
2019-06-27T17:53:01.437Z,101415.63
2019-06-27T17:55:31.720Z,101405.14
2019-06-27T17:58:01.857Z,101403.72
2019-06-27T18:00:32.000Z,101404.62
2019-06-27T18:03:02.129Z,101407.03
2019-06-27T18:05:32.280Z,101411.50
2019-06-27T18:08:02.402Z,101410.41
2019-06-27T18:10:32.544Z,101408.72
2019-06-27T18:13:02.700Z,101414.72
2019-06-27T18:15:32.808Z,101415.19
2019-06-27T18:18:02.943Z,101420.05
2019-06-27T18:20:33.088Z,101420.16
2019-06-27T18:23:03.218Z,101421.02
2019-06-27T18:25:33.360Z,101419.63
2019-06-27T18:28:03.489Z,101427.36
2019-06-27T18:30:33.624Z,101427.36
2019-06-27T18:33:03.747Z,101431.78
2019-06-27T18:35:33.893Z,101429.72
2019-06-27T18:38:04.026Z,101430.16
2019-06-27T18:40:34.164Z,101438.75
2019-06-27T18:43:04.292Z,101444.92
2019-06-27T18:45:34.451Z,101435.61
2019-06-27T18:48:04.619Z,101439.02
2019-06-27T18:50:35.819Z,101442.45
2019-06-27T18:53:05.944Z,101448.39
2019-06-27T18:55:36.123Z,101451.29
2019-06-27T18:58:06.243Z,101452.24
2019-06-27T19:00:36.373Z,101453.06
2019-06-27T19:03:06.702Z,101454.78
2019-06-27T19:05:38.733Z,101432.66
2019-06-27T19:08:10.491Z,101468.22
2019-06-27T19:10:41.516Z,101466.86
2019-06-27T19:13:12.715Z,101467.52
2019-06-27T19:15:42.849Z,101469.71
2019-06-27T19:18:30.983Z,101474.66
2019-06-27T19:21:03.474Z,101474.16
2019-06-27T19:23:41.029Z,101484.19
2019-06-27T19:26:11.212Z,101485.48
2019-06-27T19:28:41.383Z,101486.81
2019-06-27T19:31:11.552Z,101495.83
2019-06-27T19:33:41.718Z,101501.06
2019-06-27T19:36:11.931Z,101494.35
2019-06-27T19:38:42.084Z,101489.16
2019-06-27T19:41:13.701Z,101490.48
2019-06-27T19:43:43.888Z,101497.27
2019-06-27T19:46:14.049Z,101498.89
2019-06-27T19:48:45.698Z,101497.91
2019-06-27T19:51:16.079Z,101498.67
2019-06-27T19:53:46.276Z,101498.18
2019-06-27T19:56:18.799Z,101494.09
2019-06-27T19:58:49.189Z,101495.55
2019-06-27T20:01:19.361Z,101496.21
2019-06-27T20:03:49.523Z,101504.61
2019-06-27T20:06:19.632Z,101508.08
2019-06-27T20:08:49.756Z,101513.71
2019-06-27T20:11:19.967Z,101509.91
2019-06-27T20:13:50.108Z,101513.59
2019-06-27T20:16:20.269Z,101510.52
2019-06-27T20:18:50.411Z,101513.08
2019-06-27T20:21:20.556Z,101523.38
2019-06-27T20:23:50.733Z,101524.73
2019-06-27T20:26:20.973Z,101527.34
2019-06-27T20:28:51.096Z,101527.40
2019-06-27T20:31:21.278Z,101522.69
2019-06-27T20:33:51.435Z,101523.58
2019-06-27T20:36:21.597Z,101530.69
2019-06-27T20:38:51.747Z,101528.77
2019-06-27T20:41:21.926Z,101530.59
2019-06-27T20:43:52.066Z,101529.78
2019-06-27T20:46:23.409Z,101528.66
2019-06-27T20:48:54.072Z,101533.81
2019-06-27T20:51:24.338Z,101533.50
2019-06-27T20:53:54.466Z,101537.78
2019-06-27T20:56:24.771Z,101540.30
2019-06-27T20:58:55.850Z,101538.96
2019-06-27T21:01:26.342Z,101549.25
2019-06-27T21:03:56.533Z,101551.00
2019-06-27T21:06:26.658Z,101554.75
2019-06-27T21:08:56.775Z,101557.50
2019-06-27T21:11:27.609Z,101555.41
2019-06-27T21:13:57.730Z,101556.42
2019-06-27T21:16:27.920Z,101557.52
2019-06-27T21:18:58.047Z,101556.78
2019-06-27T21:21:28.234Z,101559.13
2019-06-27T21:23:58.375Z,101561.69
2019-06-27T21:26:28.547Z,101562.31
2019-06-27T21:28:58.723Z,101558.70
2019-06-27T21:31:28.862Z,101563.64
2019-06-27T21:33:59.370Z,101558.95
2019-06-27T21:36:29.508Z,101561.99
2019-06-27T21:39:07.504Z,101563.70
2019-06-27T21:41:32.074Z,101564.68
2019-06-27T21:44:02.236Z,101568.60
2019-06-27T21:46:32.400Z,101576.19
2019-06-27T21:49:02.604Z,101567.42
2019-06-27T21:51:33.133Z,101578.36
2019-06-27T21:54:03.451Z,101580.67
2019-06-27T21:56:34.270Z,101583.73
2019-06-27T21:59:04.516Z,101583.16
2019-06-27T22:01:34.918Z,101582.53
2019-06-27T22:04:05.113Z,101580.41
2019-06-27T22:06:35.285Z,101581.99
2019-06-27T22:09:23.434Z,101574.83
2019-06-27T22:11:41.829Z,101581.08
2019-06-27T22:14:11.945Z,101581.24
2019-06-27T22:16:42.101Z,101587.11
2019-06-27T22:19:12.256Z,101587.83
2019-06-27T22:21:42.631Z,101587.95
2019-06-27T22:24:14.123Z,101585.80
2019-06-27T22:26:44.291Z,101591.94
2019-06-27T22:29:14.425Z,101589.27
2019-06-27T22:31:44.566Z,101591.71
2019-06-27T22:34:14.896Z,101594.00
2019-06-27T22:36:45.019Z,101596.17
2019-06-27T22:39:40.370Z,101591.22
2019-06-27T22:42:22.820Z,101594.22
2019-06-27T22:45:12.578Z,101597.09
2019-06-27T22:48:00.423Z,101597.54
2019-06-27T22:50:49.775Z,101586.68
2019-06-27T22:53:22.099Z,101593.77
2019-06-27T22:55:52.320Z,101599.54
2019-06-27T22:58:22.702Z,101590.14
2019-06-27T23:00:52.960Z,101597.22
2019-06-27T23:03:24.271Z,101592.63
2019-06-27T23:05:54.625Z,101597.48
2019-06-27T23:08:24.841Z,101599.64
2019-06-27T23:10:55.145Z,101597.72
2019-06-27T23:13:25.330Z,101599.60
2019-06-27T23:15:55.452Z,101604.25
2019-06-27T23:18:25.626Z,101598.41
2019-06-27T23:20:55.759Z,101608.17
2019-06-27T23:23:26.092Z,101603.47
2019-06-27T23:25:56.285Z,101606.83
2019-06-27T23:28:26.418Z,101601.26
2019-06-27T23:30:56.608Z,101610.53
2019-06-27T23:33:26.723Z,101612.09
2019-06-27T23:35:57.135Z,101616.00
2019-06-27T23:38:27.268Z,101617.76
2019-06-27T23:40:57.454Z,101618.03
2019-06-27T23:43:27.587Z,101615.72
2019-06-27T23:45:57.790Z,101614.65
2019-06-27T23:48:27.919Z,101612.92
2019-06-27T23:50:58.047Z,101611.47
2019-06-27T23:53:28.180Z,101616.45
2019-06-27T23:55:58.300Z,101618.84
2019-06-27T23:58:28.437Z,101617.28
